createdAt,value
2023-03-21T00:00:36.629Z,90.17
2023-03-21T00:01:36.568Z,90.28
2023-03-21T00:02:36.579Z,90.28
2023-03-21T00:03:36.745Z,90.28
2023-03-21T00:34:15.384Z,90.37
2023-03-21T00:34:27.080Z,90.69
2023-03-21T00:35:53.510Z,90.58
2023-03-21T00:36:20.336Z,90.58
2023-03-21T00:37:20.361Z,90.58
2023-03-21T00:38:20.294Z,90.69
2023-03-21T00:39:20.429Z,90.79
2023-03-21T00:40:27.900Z,90.58
2023-03-21T00:41:35.181Z,90.58
2023-03-21T00:42:20.271Z,90.58
2023-03-21T00:43:20.213Z,90.58
2023-03-21T00:44:20.253Z,90.79
2023-03-21T00:45:20.215Z,90.79
2023-03-21T00:46:21.736Z,90.99
2023-03-21T00:47:20.207Z,90.99
2023-03-21T00:48:20.194Z,91.09
2023-03-21T00:49:20.201Z,90.99
2023-03-21T00:50:20.183Z,91.30
2023-03-21T00:51:20.161Z,91.20
2023-03-21T00:52:30.617Z,91.20
2023-03-21T00:53:20.156Z,91.09
2023-03-21T00:54:20.172Z,91.09
2023-03-21T00:55:20.130Z,91.09
2023-03-21T00:56:20.091Z,91.09
2023-03-21T00:57:21.998Z,91.30
2023-03-21T00:58:20.175Z,91.20
2023-03-21T00:59:20.056Z,91.30
2023-03-21T01:00:20.024Z,91.40
2023-03-21T01:01:20.009Z,91.36
2023-03-21T01:02:20.076Z,91.36
2023-03-21T01:03:25.049Z,91.50
2023-03-21T01:04:20.025Z,91.46
2023-03-21T01:05:20.023Z,91.67
2023-03-21T01:06:19.995Z,91.61
2023-03-21T01:07:20.045Z,91.77
2023-03-21T01:08:28.011Z,91.67
2023-03-21T01:09:20.042Z,91.71
2023-03-21T01:10:19.928Z,91.91
2023-03-21T01:11:19.894Z,91.91
2023-03-21T01:12:19.922Z,91.87
2023-03-21T01:13:19.901Z,91.77
2023-03-21T01:14:23.080Z,91.82
2023-03-21T01:15:19.866Z,91.91
2023-03-21T01:16:19.886Z,91.91
2023-03-21T01:17:19.850Z,92.12
2023-03-21T01:18:19.837Z,92.02
2023-03-21T01:19:50.731Z,92.02
2023-03-21T01:20:19.829Z,91.97
2023-03-21T01:21:19.889Z,91.87
2023-03-21T01:22:19.795Z,91.91
2023-03-21T01:23:19.823Z,91.87
2023-03-21T01:24:19.793Z,91.87
2023-03-21T01:25:22.704Z,91.87
2023-03-21T01:26:19.773Z,91.87
2023-03-21T01:27:19.806Z,91.87
2023-03-21T01:28:19.747Z,92.08
2023-03-21T01:29:19.775Z,91.97
2023-03-21T01:30:23.903Z,92.08
2023-03-21T01:31:19.724Z,91.97
2023-03-21T01:32:19.718Z,91.87
2023-03-21T01:33:19.644Z,92.12
2023-03-21T01:34:19.690Z,92.18
2023-03-21T01:35:19.628Z,92.18
2023-03-21T01:36:22.656Z,92.22
2023-03-21T01:37:19.614Z,92.28
2023-03-21T01:38:19.587Z,92.22
2023-03-21T01:39:19.602Z,92.32
2023-03-21T01:40:19.569Z,92.43
2023-03-21T01:41:20.358Z,92.43
2023-03-21T01:42:19.550Z,92.43
2023-03-21T01:43:19.554Z,92.28
2023-03-21T01:44:19.540Z,92.18
2023-03-21T01:45:19.512Z,92.18
2023-03-21T01:46:19.563Z,92.18
2023-03-21T01:47:19.490Z,92.22
2023-03-21T01:48:19.484Z,92.53
2023-03-21T01:49:19.497Z,92.53
2023-03-21T01:50:19.451Z,92.53
2023-03-21T01:51:19.459Z,92.63
2023-03-21T01:52:33.408Z,92.74
2023-03-21T01:53:19.433Z,92.74
2023-03-21T01:54:19.435Z,92.83
2023-03-21T01:55:19.426Z,92.94
2023-03-21T01:56:19.388Z,92.63
2023-03-21T01:57:19.878Z,92.74
2023-03-21T01:58:19.380Z,93.04
2023-03-21T01:59:19.380Z,92.94
2023-03-21T02:00:19.346Z,92.83
2023-03-21T02:01:19.361Z,92.94
2023-03-21T02:02:19.337Z,93.04
2023-03-21T02:03:33.191Z,93.25
2023-03-21T02:04:19.409Z,93.25
2023-03-21T02:05:19.292Z,93.15
2023-03-21T02:06:19.275Z,93.25
2023-03-21T02:07:19.272Z,93.35
2023-03-21T02:08:20.871Z,93.25
2023-03-21T02:09:19.266Z,93.15
2023-03-21T02:10:19.232Z,93.25
2023-03-21T02:11:19.233Z,93.45
2023-03-21T02:12:19.203Z,93.45
2023-03-21T02:13:19.201Z,93.45
2023-03-21T02:14:28.305Z,93.55
2023-03-21T02:15:19.195Z,93.35
2023-03-21T02:16:19.183Z,93.25
2023-03-21T02:17:19.150Z,93.45
2023-03-21T02:18:19.144Z,93.55
2023-03-21T02:19:23.023Z,93.55
2023-03-21T02:20:19.121Z,93.66
2023-03-21T02:21:19.119Z,93.45
2023-03-21T02:22:19.105Z,93.76
2023-03-21T02:23:19.089Z,93.55
2023-03-21T02:24:19.097Z,93.55
2023-03-21T02:25:22.116Z,93.45
2023-03-21T02:26:19.058Z,93.66
2023-03-21T02:27:19.045Z,93.66
2023-03-21T02:28:19.031Z,93.66
2023-03-21T02:29:19.043Z,93.55
2023-03-21T02:30:28.266Z,93.35
2023-03-21T02:31:19.049Z,93.45
2023-03-21T02:32:31.417Z,93.45
2023-03-21T02:33:18.985Z,93.66
2023-03-21T02:34:18.979Z,93.76
2023-03-21T02:35:18.960Z,93.76
2023-03-21T02:36:18.975Z,93.66
2023-03-21T02:37:18.949Z,93.86
2023-03-21T02:38:18.919Z,93.86
2023-03-21T02:39:18.941Z,93.96
2023-03-21T02:40:18.907Z,93.96
2023-03-21T02:41:20.019Z,93.76
2023-03-21T02:42:18.874Z,93.66
2023-03-21T02:43:23.332Z,93.66
2023-03-21T02:44:18.879Z,93.66
2023-03-21T02:45:18.840Z,93.76
2023-03-21T02:46:18.916Z,93.96
2023-03-21T02:47:18.846Z,94.17
2023-03-21T02:48:26.863Z,94.07
2023-03-21T02:49:18.835Z,93.96
2023-03-21T02:50:18.783Z,93.86
2023-03-21T02:51:18.798Z,93.86
2023-03-21T02:52:31.802Z,94.07
2023-03-21T02:53:18.759Z,94.07
2023-03-21T02:54:35.384Z,94.07
2023-03-21T02:55:18.744Z,94.37
2023-03-21T02:56:18.723Z,94.58
2023-03-21T02:57:18.724Z,94.78
2023-03-21T02:58:18.724Z,94.99
2023-03-21T02:59:18.718Z,95.20
2023-03-21T03:00:18.677Z,95.86
2023-03-21T03:01:18.693Z,96.01
2023-03-21T03:02:18.660Z,95.95
2023-03-21T03:03:33.064Z,96.16
2023-03-21T03:04:18.693Z,96.47
2023-03-21T03:05:22.136Z,96.57
2023-03-21T03:06:18.604Z,96.57
2023-03-21T03:07:18.602Z,96.47
2023-03-21T03:08:18.608Z,96.47
2023-03-21T03:09:18.606Z,96.47
2023-03-21T03:10:18.566Z,96.47
2023-03-21T03:11:18.567Z,96.57
2023-03-21T03:12:18.540Z,96.78
2023-03-21T03:13:18.562Z,96.98
2023-03-21T03:14:40.159Z,96.88
2023-03-21T03:15:18.520Z,96.88
2023-03-21T03:16:18.610Z,96.88
2023-03-21T03:17:18.504Z,96.67
2023-03-21T03:18:18.487Z,96.78
2023-03-21T03:19:18.482Z,96.78
2023-03-21T03:20:18.466Z,96.78
2023-03-21T03:21:18.456Z,97.08
2023-03-21T03:22:18.451Z,96.88
2023-03-21T03:23:18.423Z,96.78
2023-03-21T03:24:18.453Z,97.08
2023-03-21T03:25:25.007Z,96.98
2023-03-21T03:26:18.399Z,96.78
2023-03-21T03:27:18.396Z,96.78
2023-03-21T03:28:18.375Z,96.78
2023-03-21T03:29:18.373Z,96.78
2023-03-21T03:30:18.346Z,96.57
2023-03-21T03:31:20.830Z,96.57
2023-03-21T03:32:18.333Z,96.47
2023-03-21T03:33:18.313Z,96.47
2023-03-21T03:34:18.331Z,96.37
2023-03-21T03:35:18.292Z,96.37
2023-03-21T03:36:31.184Z,96.37
2023-03-21T03:37:18.281Z,96.26
2023-03-21T03:38:18.254Z,96.26
2023-03-21T03:39:18.267Z,96.16
2023-03-21T03:40:18.239Z,96.16
2023-03-21T03:41:19.376Z,96.06
2023-03-21T03:42:28.072Z,96.06
2023-03-21T03:43:18.210Z,95.95
2023-03-21T03:44:18.223Z,96.06
2023-03-21T03:45:18.177Z,96.06
2023-03-21T03:46:18.236Z,96.16
2023-03-21T03:47:31.992Z,95.95
2023-03-21T03:48:18.169Z,96.06
2023-03-21T03:49:18.152Z,95.86
2023-03-21T03:50:18.128Z,95.65
2023-03-21T03:51:18.103Z,95.65
2023-03-21T03:52:18.100Z,95.44
2023-03-21T03:53:18.839Z,95.44
2023-03-21T03:54:18.099Z,95.24
2023-03-21T03:55:18.098Z,95.44
2023-03-21T03:56:18.056Z,95.34
2023-03-21T03:57:18.038Z,95.34
2023-03-21T03:58:23.213Z,95.14
2023-03-21T03:59:18.053Z,95.24
2023-03-21T04:00:18.020Z,95.14
2023-03-21T04:01:18.000Z,95.03
2023-03-21T04:02:18.074Z,95.14
2023-03-21T04:03:18.009Z,95.03
2023-03-21T04:04:18.934Z,94.89
2023-03-21T04:05:19.047Z,94.78
2023-03-21T04:06:17.984Z,94.62
2023-03-21T04:07:17.943Z,94.83
2023-03-21T04:08:17.936Z,94.62
2023-03-21T04:09:22.145Z,94.62
2023-03-21T04:10:17.906Z,94.62
2023-03-21T04:11:17.896Z,94.52
2023-03-21T04:12:17.886Z,94.48
2023-03-21T04:13:17.873Z,94.32
2023-03-21T04:14:17.883Z,94.27
2023-03-21T04:15:17.841Z,94.27
2023-03-21T04:16:17.879Z,94.07
2023-03-21T04:17:17.826Z,94.17
2023-03-21T04:18:17.815Z,94.17
2023-03-21T04:19:17.826Z,94.07
2023-03-21T04:20:30.092Z,93.96
2023-03-21T04:21:17.781Z,93.96
2023-03-21T04:22:17.802Z,93.86
2023-03-21T04:23:17.763Z,93.86
2023-03-21T04:24:17.764Z,93.96
2023-03-21T04:25:30.790Z,93.96
2023-03-21T04:26:17.733Z,93.76
2023-03-21T04:27:17.718Z,93.76
2023-03-21T04:28:17.712Z,93.76
2023-03-21T04:29:17.723Z,93.76
2023-03-21T04:30:17.691Z,93.86
2023-03-21T04:31:25.457Z,93.45
2023-03-21T04:32:17.861Z,93.55
2023-03-21T04:33:17.648Z,93.45
2023-03-21T04:34:17.650Z,93.35
2023-03-21T04:35:17.625Z,93.35
2023-03-21T04:36:17.628Z,93.45
2023-03-21T04:37:17.604Z,93.45
2023-03-21T04:38:17.599Z,93.45
2023-03-21T04:39:17.598Z,93.35
2023-03-21T04:40:17.572Z,93.45
2023-03-21T04:41:17.552Z,93.45
2023-03-21T04:42:17.547Z,93.49
2023-03-21T04:43:17.545Z,93.39
2023-03-21T04:44:17.552Z,93.70
2023-03-21T04:45:17.523Z,93.80
2023-03-21T04:46:17.596Z,93.80
2023-03-21T04:47:17.487Z,93.55
2023-03-21T04:48:17.538Z,93.45
2023-03-21T04:49:17.479Z,93.45
2023-03-21T04:50:17.461Z,93.45
2023-03-21T04:51:17.454Z,93.45
2023-03-21T04:52:17.434Z,93.35
2023-03-21T04:53:17.459Z,93.45
2023-03-21T05:03:07.856Z,93.49
2023-03-21T05:04:08.917Z,93.49
2023-03-21T05:05:08.829Z,93.49
2023-03-21T05:06:08.811Z,93.49
2023-03-21T05:07:08.807Z,93.35
2023-03-21T05:08:08.792Z,93.45
2023-03-21T05:09:08.800Z,93.49
2023-03-21T05:10:08.779Z,93.35
2023-03-21T05:11:08.775Z,93.35
2023-03-21T05:12:08.741Z,93.35
2023-03-21T05:13:08.741Z,93.25
2023-03-21T05:14:08.737Z,93.29
2023-03-21T05:15:08.712Z,93.35
2023-03-21T05:16:08.698Z,93.19
2023-03-21T05:17:08.696Z,93.35
2023-03-21T05:18:08.681Z,93.19
2023-03-21T05:19:08.685Z,93.39
2023-03-21T05:20:08.653Z,93.49
2023-03-21T05:21:08.645Z,93.29
2023-03-21T05:22:08.642Z,93.49
2023-03-21T05:23:08.631Z,93.49
2023-03-21T05:24:08.636Z,93.70
2023-03-21T05:25:08.626Z,93.60
2023-03-21T05:26:08.622Z,93.39
2023-03-21T05:27:08.588Z,93.49
2023-03-21T05:28:08.756Z,93.39
2023-03-21T05:29:08.617Z,93.29
2023-03-21T05:30:08.542Z,93.29
2023-03-21T05:31:08.597Z,93.04
2023-03-21T05:32:08.526Z,93.19
2023-03-21T05:33:08.523Z,93.19
2023-03-21T05:34:08.704Z,93.19
2023-03-21T05:35:08.496Z,93.39
2023-03-21T05:36:08.483Z,93.29
2023-03-21T05:37:08.497Z,93.19
2023-03-21T05:38:08.453Z,93.19
2023-03-21T05:39:08.485Z,93.04
2023-03-21T05:40:08.434Z,93.08
2023-03-21T05:41:08.422Z,93.08
2023-03-21T05:42:08.408Z,92.98
2023-03-21T05:43:08.413Z,92.98
2023-03-21T05:44:08.404Z,93.29
2023-03-21T05:45:08.381Z,93.25
2023-03-21T05:46:08.405Z,93.25
2023-03-21T05:47:08.356Z,93.55
2023-03-21T05:48:08.525Z,93.55
2023-03-21T05:49:08.353Z,93.55
2023-03-21T05:50:08.330Z,93.45
2023-03-21T05:51:08.308Z,93.35
2023-03-21T05:52:08.295Z,93.66
2023-03-21T05:53:08.287Z,93.55
2023-03-21T05:54:08.310Z,93.45
2023-03-21T05:55:08.266Z,93.45
2023-03-21T05:56:08.263Z,93.45
2023-03-21T05:57:08.244Z,93.35
2023-03-21T05:58:08.236Z,93.35
2023-03-21T05:59:08.254Z,93.35
2023-03-21T06:00:08.209Z,93.45
2023-03-21T06:01:08.202Z,93.45
2023-03-21T06:02:08.194Z,93.45
2023-03-21T06:03:08.179Z,93.45
2023-03-21T06:04:08.320Z,93.55
2023-03-21T06:05:08.165Z,93.45
2023-03-21T06:06:08.151Z,93.55
2023-03-21T06:07:08.134Z,93.35
2023-03-21T06:08:08.139Z,93.55
2023-03-21T06:09:08.137Z,93.66
2023-03-21T06:10:08.117Z,94.07
2023-03-21T06:11:08.096Z,94.07
2023-03-21T06:12:08.101Z,93.96
2023-03-21T06:13:08.067Z,93.96
2023-03-21T06:14:08.078Z,94.37
2023-03-21T06:15:08.058Z,94.48
2023-03-21T06:16:08.123Z,94.78
2023-03-21T06:17:08.024Z,94.78
2023-03-21T06:18:08.036Z,94.89
2023-03-21T06:19:08.025Z,94.99
2023-03-21T06:20:07.988Z,95.09
2023-03-21T06:21:07.980Z,95.09
2023-03-21T06:22:07.976Z,95.09
2023-03-21T06:23:07.956Z,95.20
2023-03-21T06:24:07.973Z,95.40
2023-03-21T06:25:07.938Z,95.61
2023-03-21T06:26:07.926Z,95.75
2023-03-21T06:27:07.918Z,95.95
2023-03-21T06:28:07.906Z,95.95
2023-03-21T06:29:07.922Z,95.91
2023-03-21T06:30:07.872Z,95.91
2023-03-21T06:31:07.942Z,96.12
2023-03-21T06:32:07.853Z,96.01
2023-03-21T06:33:07.851Z,96.01
2023-03-21T06:34:07.858Z,95.81
2023-03-21T06:35:07.899Z,95.81
2023-03-21T06:36:07.826Z,96.12
2023-03-21T06:37:07.806Z,96.22
2023-03-21T06:38:07.792Z,96.12
2023-03-21T06:39:07.847Z,96.22
2023-03-21T06:40:07.773Z,96.32
2023-03-21T06:41:07.765Z,96.53
2023-03-21T06:42:07.741Z,96.42
2023-03-21T06:43:07.788Z,96.32
2023-03-21T06:44:07.734Z,96.63
2023-03-21T06:45:07.712Z,96.53
2023-03-21T06:46:07.708Z,96.32
2023-03-21T06:47:07.790Z,96.42
2023-03-21T06:48:09.376Z,96.73
2023-03-21T06:49:07.726Z,96.94
2023-03-21T06:50:07.650Z,96.94
2023-03-21T06:51:07.642Z,97.14
2023-03-21T06:52:07.631Z,96.94
2023-03-21T06:53:07.675Z,97.24
2023-03-21T06:54:07.643Z,97.14
2023-03-21T06:55:07.673Z,97.04
2023-03-21T06:56:07.593Z,96.83
2023-03-21T06:57:07.588Z,97.14
2023-03-21T06:58:07.553Z,97.24
2023-03-21T06:59:07.581Z,97.04
2023-03-21T07:00:07.538Z,97.14
2023-03-21T07:01:07.564Z,97.34
2023-03-21T07:02:07.579Z,97.34
2023-03-21T07:03:07.512Z,97.24
2023-03-21T07:04:07.501Z,97.04
2023-03-21T07:05:07.604Z,97.14
2023-03-21T07:06:07.544Z,97.14
2023-03-21T07:07:07.480Z,97.24
2023-03-21T07:08:07.452Z,97.34
2023-03-21T07:09:07.466Z,97.45
2023-03-21T07:10:07.449Z,97.30
2023-03-21T07:11:07.418Z,97.20
2023-03-21T07:12:07.416Z,97.34
2023-03-21T07:13:07.416Z,97.24
2023-03-21T07:14:07.379Z,97.24
2023-03-21T07:15:07.437Z,97.34
2023-03-21T07:16:07.411Z,97.65
2023-03-21T07:17:07.359Z,97.50
2023-03-21T07:18:07.347Z,97.30
2023-03-21T07:19:07.373Z,97.40
2023-03-21T07:20:07.333Z,97.30
2023-03-21T07:21:07.314Z,97.30
2023-03-21T07:22:07.302Z,97.50
2023-03-21T07:23:07.299Z,97.20
2023-03-21T07:24:07.297Z,97.40
2023-03-21T07:25:07.374Z,97.30
2023-03-21T07:26:07.277Z,97.30
2023-03-21T07:27:07.253Z,97.40
2023-03-21T07:28:07.231Z,97.61
2023-03-21T07:29:07.289Z,97.30
2023-03-21T07:30:07.228Z,97.50
2023-03-21T07:31:07.276Z,97.61
2023-03-21T07:32:07.187Z,97.55
2023-03-21T07:33:07.190Z,97.65
2023-03-21T07:34:07.170Z,97.96
2023-03-21T07:35:07.216Z,97.86
2023-03-21T07:36:07.196Z,97.75
2023-03-21T07:37:07.153Z,97.91
2023-03-21T07:38:07.116Z,97.91
2023-03-21T07:39:07.153Z,97.71
2023-03-21T07:40:07.241Z,97.71
2023-03-21T07:41:07.170Z,97.71
2023-03-21T07:42:07.161Z,97.40
2023-03-21T07:43:07.135Z,97.50
2023-03-21T07:45:07.058Z,97.61
2023-03-21T07:46:07.082Z,97.61
2023-03-21T07:47:07.051Z,97.71
2023-03-21T07:48:07.061Z,97.61
2023-03-21T07:49:06.998Z,97.50
2023-03-21T07:50:07.037Z,97.50
2023-03-21T07:51:07.036Z,97.61
2023-03-21T07:52:07.049Z,97.50
2023-03-21T07:53:06.970Z,97.30
2023-03-21T07:54:06.953Z,97.50
2023-03-21T07:55:06.965Z,97.55
2023-03-21T07:56:06.917Z,97.75
2023-03-21T07:57:06.902Z,97.75
2023-03-21T07:58:06.928Z,97.96
2023-03-21T07:59:06.886Z,97.96
2023-03-21T08:00:06.907Z,98.02
2023-03-21T08:01:06.960Z,97.96
2023-03-21T08:02:06.951Z,98.16
2023-03-21T08:03:06.911Z,98.22
2023-03-21T08:04:06.858Z,98.12
2023-03-21T08:05:06.848Z,98.12
2023-03-21T08:06:06.847Z,98.12
2023-03-21T08:07:06.813Z,97.91
2023-03-21T08:08:06.804Z,98.12
2023-03-21T08:09:06.777Z,98.02
2023-03-21T08:10:06.802Z,97.91
2023-03-21T08:11:06.752Z,97.91
2023-03-21T08:12:06.738Z,97.91
2023-03-21T08:13:06.745Z,98.12
2023-03-21T08:14:06.739Z,97.91
2023-03-21T08:15:06.728Z,97.97
2023-03-21T08:16:06.699Z,98.18
2023-03-21T08:17:06.775Z,97.97
2023-03-21T08:18:06.676Z,97.97
2023-03-21T08:19:06.673Z,97.97
2023-03-21T08:20:06.715Z,97.97
2023-03-21T08:21:08.855Z,97.97
2023-03-21T08:22:06.684Z,97.66
2023-03-21T08:23:06.618Z,97.92
2023-03-21T08:24:06.606Z,97.92
2023-03-21T08:25:06.623Z,97.92
2023-03-21T08:26:06.582Z,97.92
2023-03-21T08:27:06.570Z,97.72
2023-03-21T08:28:06.563Z,97.62
2023-03-21T08:29:06.552Z,97.82
2023-03-21T08:30:06.560Z,97.52
2023-03-21T08:31:06.721Z,97.31
2023-03-21T08:32:06.535Z,97.31
2023-03-21T08:33:06.502Z,97.62
2023-03-21T08:34:06.495Z,97.72
2023-03-21T08:35:06.529Z,97.62
2023-03-21T08:36:06.490Z,97.47
2023-03-21T08:37:06.458Z,97.78
2023-03-21T08:38:06.459Z,97.78
2023-03-21T08:39:06.474Z,97.67
2023-03-21T08:40:06.541Z,97.57
2023-03-21T08:41:06.419Z,97.47
2023-03-21T08:42:06.394Z,97.57
2023-03-21T08:43:06.397Z,97.57
2023-03-21T08:44:06.407Z,97.37
2023-03-21T08:45:06.391Z,97.27
2023-03-21T08:46:06.472Z,97.37
2023-03-21T08:47:06.355Z,97.37
2023-03-21T08:48:06.438Z,97.27
2023-03-21T08:49:06.324Z,97.37
2023-03-21T08:50:06.337Z,97.27
2023-03-21T08:51:06.297Z,97.27
2023-03-21T08:52:06.290Z,97.06
2023-03-21T08:53:06.288Z,96.91
2023-03-21T08:54:06.269Z,97.16
2023-03-21T08:55:06.277Z,96.96
2023-03-21T08:56:06.264Z,97.27
2023-03-21T08:57:06.233Z,97.27
2023-03-21T08:58:06.226Z,97.37
2023-03-21T08:59:06.223Z,97.06
2023-03-21T09:00:06.225Z,97.06
2023-03-21T09:01:06.194Z,97.06
2023-03-21T09:02:06.325Z,96.96
2023-03-21T09:03:06.173Z,97.06
2023-03-21T09:04:06.161Z,96.96
2023-03-21T09:05:06.190Z,97.16
2023-03-21T09:06:06.137Z,97.27
2023-03-21T09:07:06.140Z,97.27
2023-03-21T09:08:06.118Z,97.37
2023-03-21T09:09:06.130Z,97.33
2023-03-21T09:10:20.548Z,97.22
2023-03-21T09:11:06.110Z,97.42
2023-03-21T09:12:06.077Z,96.92
2023-03-21T09:13:06.080Z,97.02
2023-03-21T09:14:06.065Z,96.71
2023-03-21T09:15:06.066Z,97.12
2023-03-21T09:16:06.054Z,97.12
2023-03-21T09:17:06.018Z,96.81
2023-03-21T09:18:06.015Z,97.02
2023-03-21T09:19:05.995Z,96.61
2023-03-21T09:20:06.035Z,96.71
2023-03-21T09:21:05.969Z,97.33
2023-03-21T09:22:05.969Z,97.33
2023-03-21T09:23:05.943Z,97.63
2023-03-21T09:24:05.944Z,96.81
2023-03-21T09:25:05.940Z,97.02
2023-03-21T09:26:05.928Z,96.92
2023-03-21T09:27:05.898Z,96.71
2023-03-21T09:28:05.895Z,96.81
2023-03-21T09:29:05.880Z,96.92
2023-03-21T09:30:05.921Z,96.92
2023-03-21T09:31:05.878Z,96.71
2023-03-21T09:32:05.848Z,97.02
2023-03-21T09:33:05.846Z,97.17
2023-03-21T09:34:05.828Z,97.08
2023-03-21T09:35:05.850Z,96.87
2023-03-21T09:36:05.819Z,96.56
2023-03-21T09:37:05.782Z,96.83
2023-03-21T09:38:05.790Z,96.77
2023-03-21T09:39:05.782Z,96.72
2023-03-21T09:40:05.780Z,96.46
2023-03-21T09:41:05.744Z,95.95
2023-03-21T09:42:05.764Z,96.05
2023-03-21T09:43:05.942Z,96.05
2023-03-21T09:44:05.752Z,96.01
2023-03-21T09:45:05.725Z,96.42
2023-03-21T09:46:05.704Z,96.11
2023-03-21T09:47:05.712Z,96.11
2023-03-21T09:48:05.713Z,95.96
2023-03-21T09:49:05.659Z,95.96
2023-03-21T09:50:13.987Z,95.76
2023-03-21T09:51:05.680Z,95.86
2023-03-21T09:52:05.622Z,95.76
2023-03-21T09:53:05.641Z,95.65
2023-03-21T09:54:05.598Z,95.31
2023-03-21T09:55:05.610Z,95.31
2023-03-21T09:56:05.589Z,95.31
2023-03-21T09:57:05.580Z,94.90
2023-03-21T09:58:05.575Z,94.79
2023-03-21T09:59:05.546Z,94.79
2023-03-21T10:00:05.576Z,94.43
2023-03-21T10:01:05.532Z,94.43
2023-03-21T10:02:05.526Z,94.84
2023-03-21T10:03:05.527Z,95.04
2023-03-21T10:04:05.601Z,94.94
2023-03-21T10:05:05.499Z,95.15
2023-03-21T10:06:05.508Z,95.10
2023-03-21T10:07:05.486Z,95.31
2023-03-21T10:08:05.448Z,95.31
2023-03-21T10:09:05.436Z,95.00
2023-03-21T10:10:05.472Z,94.84
2023-03-21T10:11:05.408Z,94.64
2023-03-21T10:12:05.401Z,94.94
2023-03-21T10:13:05.389Z,95.04
2023-03-21T10:14:05.415Z,95.35
2023-03-21T10:15:05.389Z,94.64
2023-03-21T10:16:05.408Z,94.78
2023-03-21T10:17:05.344Z,95.29
2023-03-21T10:18:05.329Z,95.19
2023-03-21T10:19:05.327Z,95.50
2023-03-21T10:20:05.357Z,96.01
2023-03-21T10:21:05.302Z,96.21
2023-03-21T10:22:05.294Z,96.21
2023-03-21T10:23:05.281Z,96.31
2023-03-21T10:24:05.275Z,96.11
2023-03-21T10:25:05.347Z,96.17
2023-03-21T10:26:05.258Z,95.76
2023-03-21T10:27:05.285Z,95.70
2023-03-21T10:28:05.224Z,95.90
2023-03-21T10:29:05.236Z,96.31
2023-03-21T10:30:05.240Z,96.58
2023-03-21T10:31:05.190Z,96.68
2023-03-21T10:32:05.468Z,96.53
2023-03-21T10:33:05.392Z,96.37
2023-03-21T10:34:05.153Z,96.47
2023-03-21T10:35:05.403Z,96.17
2023-03-21T10:36:05.283Z,95.29
2023-03-21T10:37:05.460Z,96.01
2023-03-21T10:38:05.120Z,96.17
2023-03-21T10:39:05.105Z,96.17
2023-03-21T10:40:05.105Z,96.17
2023-03-21T10:41:05.080Z,96.58
2023-03-21T10:42:05.072Z,96.58
2023-03-21T10:43:05.055Z,96.01
2023-03-21T10:44:05.064Z,96.31
2023-03-21T10:45:05.056Z,96.68
2023-03-21T10:46:05.178Z,96.78
2023-03-21T10:47:05.230Z,96.78
2023-03-21T10:48:05.190Z,96.47
2023-03-21T10:49:05.063Z,96.58
2023-03-21T10:50:08.125Z,96.73
2023-03-21T10:51:05.031Z,96.12
2023-03-21T10:52:04.948Z,95.81
2023-03-21T10:53:04.964Z,96.12
2023-03-21T10:54:04.938Z,96.12
2023-03-21T10:55:05.369Z,95.72
2023-03-21T10:56:04.906Z,95.81
2023-03-21T10:57:04.968Z,95.92
2023-03-21T10:58:04.891Z,95.92
2023-03-21T10:59:04.876Z,95.10
2023-03-21T11:00:04.891Z,95.51
2023-03-21T11:01:04.914Z,95.72
2023-03-21T11:02:04.860Z,95.87
2023-03-21T11:03:04.823Z,95.36
2023-03-21T11:04:04.854Z,95.41
2023-03-21T11:05:04.834Z,95.31
2023-03-21T11:06:04.806Z,95.10
2023-03-21T11:07:04.780Z,95.41
2023-03-21T11:08:04.816Z,95.47
2023-03-21T11:09:04.771Z,95.47
2023-03-21T11:10:04.796Z,95.16
2023-03-21T11:11:04.736Z,95.36
2023-03-21T11:12:04.746Z,95.32
2023-03-21T11:13:04.730Z,95.32
2023-03-21T11:14:04.707Z,94.50
2023-03-21T11:15:04.739Z,94.60
2023-03-21T11:16:04.691Z,94.81
2023-03-21T11:17:04.710Z,93.99
2023-03-21T11:18:04.674Z,94.55
2023-03-21T11:19:04.645Z,94.91
2023-03-21T11:20:04.692Z,95.42
2023-03-21T11:21:04.666Z,95.37
2023-03-21T11:22:04.628Z,95.12
2023-03-21T11:23:04.605Z,94.30
2023-03-21T11:24:04.872Z,93.52
2023-03-21T11:25:04.576Z,94.24
2023-03-21T11:26:04.640Z,94.45
2023-03-21T11:27:04.569Z,93.88
2023-03-21T11:28:04.562Z,94.29
2023-03-21T11:29:04.556Z,94.59
2023-03-21T11:30:04.541Z,94.70
2023-03-21T11:31:04.684Z,94.70
2023-03-21T11:32:04.523Z,95.10
2023-03-21T11:33:04.576Z,94.49
2023-03-21T11:34:04.507Z,94.90
2023-03-21T11:35:04.488Z,95.00
2023-03-21T11:36:04.567Z,95.20
2023-03-21T11:37:04.453Z,95.06
2023-03-21T11:38:04.450Z,95.06
2023-03-21T11:39:04.433Z,94.45
2023-03-21T11:40:04.421Z,94.65
2023-03-21T11:41:04.429Z,94.45
2023-03-21T11:42:04.402Z,94.75
2023-03-21T11:43:04.393Z,94.85
2023-03-21T11:44:04.410Z,95.06
2023-03-21T11:45:04.367Z,94.85
2023-03-21T11:46:04.555Z,94.85
2023-03-21T11:47:04.346Z,94.65
2023-03-21T11:48:04.354Z,94.24
2023-03-21T11:49:04.317Z,94.14
2023-03-21T11:50:05.490Z,93.93
2023-03-21T11:51:04.321Z,93.84
2023-03-21T11:52:04.285Z,93.73
2023-03-21T11:53:04.313Z,93.93
2023-03-21T11:54:04.263Z,93.93
2023-03-21T11:55:04.257Z,94.14
2023-03-21T11:56:04.262Z,94.04
2023-03-21T11:57:04.226Z,94.08
2023-03-21T11:58:13.892Z,94.29
2023-03-21T11:59:04.262Z,94.38
2023-03-21T12:00:04.766Z,94.29
2023-03-21T12:01:04.217Z,94.34
2023-03-21T12:02:04.179Z,94.34
2023-03-21T12:03:04.261Z,94.34
2023-03-21T12:04:04.236Z,94.90
2023-03-21T12:05:04.154Z,95.10
2023-03-21T12:06:04.148Z,95.20
2023-03-21T12:07:04.113Z,95.00
2023-03-21T12:08:04.110Z,95.10
2023-03-21T12:09:04.115Z,95.41
2023-03-21T12:10:04.081Z,95.41
2023-03-21T12:11:04.132Z,95.31
2023-03-21T12:12:04.067Z,95.16
2023-03-21T12:13:04.051Z,95.06
2023-03-21T12:14:04.029Z,95.16
2023-03-21T12:15:04.025Z,94.85
2023-03-21T12:16:04.089Z,95.06
2023-03-21T12:17:04.002Z,95.06
2023-03-21T12:18:03.994Z,94.71
2023-03-21T12:19:03.992Z,94.81
2023-03-21T12:20:03.968Z,94.81
2023-03-21T12:21:03.987Z,95.17
2023-03-21T12:22:03.952Z,95.28
2023-03-21T12:23:03.951Z,95.28
2023-03-21T12:24:03.916Z,95.43
2023-03-21T12:25:03.912Z,95.13
2023-03-21T12:26:03.926Z,95.08
2023-03-21T12:27:03.888Z,94.88
2023-03-21T12:28:06.137Z,94.88
2023-03-21T12:29:03.873Z,94.93
2023-03-21T12:30:03.850Z,94.84
2023-03-21T12:31:03.933Z,94.59
2023-03-21T12:32:03.830Z,94.48
2023-03-21T12:33:03.821Z,94.38
2023-03-21T12:34:03.801Z,93.93
2023-03-21T12:35:03.804Z,93.73
2023-03-21T12:36:03.862Z,93.63
2023-03-21T12:37:03.775Z,93.22
2023-03-21T12:38:03.753Z,92.51
2023-03-21T12:39:03.753Z,90.92
2023-03-21T12:40:03.736Z,91.58
2023-03-21T12:41:03.770Z,92.35
2023-03-21T12:42:03.715Z,92.45
2023-03-21T12:43:03.710Z,92.35
2023-03-21T12:44:03.685Z,92.51
2023-03-21T12:45:06.254Z,92.30
2023-03-21T12:46:03.704Z,92.41
2023-03-21T12:47:03.758Z,92.00
2023-03-21T12:48:03.732Z,90.22
2023-03-21T12:49:03.642Z,90.42
2023-03-21T12:50:03.667Z,90.56
2023-03-21T12:51:03.654Z,90.83
2023-03-21T12:52:03.612Z,90.52
2023-03-21T12:53:03.595Z,90.25
2023-03-21T12:54:03.589Z,90.86
2023-03-21T12:55:03.585Z,91.17
2023-03-21T12:56:03.566Z,91.13
2023-03-21T12:57:03.593Z,91.64
2023-03-21T12:58:03.541Z,91.49
2023-03-21T12:59:03.533Z,91.19
2023-03-21T13:00:03.530Z,89.91
2023-03-21T13:01:03.746Z,88.79
2023-03-21T13:02:03.490Z,89.20
2023-03-21T13:03:03.489Z,89.00
2023-03-21T13:04:03.515Z,89.50
2023-03-21T13:05:03.481Z,89.70
2023-03-21T13:06:03.496Z,89.40
2023-03-21T13:07:03.444Z,88.28
2023-03-21T13:08:03.424Z,88.44
2023-03-21T13:09:03.421Z,89.36
2023-03-21T13:10:03.411Z,89.36
2023-03-21T13:11:03.421Z,89.52
2023-03-21T13:12:03.381Z,89.11
2023-03-21T13:13:03.373Z,89.07
2023-03-21T13:14:03.357Z,87.79
2023-03-21T13:15:03.561Z,86.98
2023-03-21T13:16:03.400Z,86.88
2023-03-21T13:17:03.334Z,86.10
2023-03-21T13:18:03.327Z,86.31
2023-03-21T13:19:03.331Z,87.02
2023-03-21T13:20:03.297Z,87.53
2023-03-21T13:21:03.319Z,87.38
2023-03-21T13:22:03.272Z,86.82
2023-03-21T13:23:03.273Z,86.21
2023-03-21T13:24:03.254Z,86.82
2023-03-21T13:25:03.257Z,87.84
2023-03-21T13:26:03.262Z,87.16
2023-03-21T13:27:03.231Z,87.37
2023-03-21T13:28:03.208Z,87.57
2023-03-21T13:29:03.203Z,87.26
2023-03-21T13:30:03.241Z,87.67
2023-03-21T13:31:03.204Z,87.77